Time;durP1;ratioP1;P1;durP2;ratioP2;P2;SDS_P1;SDS_P2;PMS_P1;PMS_P2;Temp;Humidity;BMP_temperature;BMP_pressure;BME280_temperature;BME280_humidity;BME280_pressure;Samples;Min_cycle;Max_cycle;Signal;HPM_P1;HPM_P2
2022/08/24 00:00:18;;;;;;;35.47;31.98;;;19.50;99.90;;;;;;5048186;28;20098;-80
2022/08/24 00:02:44;;;;;;;37.45;33.78;;;19.40;99.90;;;;;;5042958;28;20132;-78
2022/08/24 00:05:10;;;;;;;36.83;33.15;;;19.40;99.90;;;;;;5038098;28;20123;-79
2022/08/24 00:07:36;;;;;;;38.20;34.17;;;19.40;99.90;;;;;;5043838;28;20041;-79
2022/08/24 00:10:04;;;;;;;37.70;33.78;;;19.50;99.90;;;;;;5033000;28;20136;-78
2022/08/24 00:12:33;;;;;;;39.85;35.65;;;19.50;99.90;;;;;;5052095;28;20548;-79
2022/08/24 00:14:59;;;;;;;40.13;36.00;;;19.50;99.90;;;;;;5062826;28;20539;-78
2022/08/24 00:17:25;;;;;;;39.35;35.15;;;19.60;99.90;;;;;;5067109;28;20040;-78
2022/08/24 00:19:52;;;;;;;37.67;33.88;;;19.60;99.90;;;;;;5050967;28;20409;-79
2022/08/24 00:22:17;;;;;;;37.15;33.22;;;19.60;99.90;;;;;;5033877;28;20049;-79
2022/08/24 00:24:43;;;;;;;41.83;37.35;;;19.60;99.90;;;;;;5045642;28;20087;-79
2022/08/24 00:27:11;;;;;;;37.53;33.53;;;19.60;99.90;;;;;;5026026;28;20132;-78
2022/08/24 00:29:37;;;;;;;37.65;33.78;;;19.60;99.90;;;;;;5034577;28;20184;-78
2022/08/24 00:32:03;;;;;;;41.47;34.80;;;19.70;99.90;;;;;;5038100;28;20553;-77
2022/08/24 00:34:30;;;;;;;39.50;35.30;;;19.70;99.90;;;;;;5062227;28;20036;-78
2022/08/24 00:36:56;;;;;;;40.67;36.28;;;19.70;99.90;;;;;;5040514;28;20040;-77
2022/08/24 00:39:22;;;;;;;43.00;36.47;;;19.70;99.90;;;;;;5050355;28;20102;-77
2022/08/24 00:41:49;;;;;;;40.70;36.30;;;19.70;99.90;;;;;;5032533;28;20485;-77
2022/08/24 00:44:17;;;;;;;44.53;38.45;;;19.70;99.90;;;;;;5033428;28;20481;-78
2022/08/24 00:46:57;;;;;;;39.35;35.15;;;19.70;99.90;;;;;;5059237;28;20044;-79
2022/08/24 00:49:29;;;;;;;40.17;35.95;;;19.70;99.90;;;;;;5044152;28;20040;-79
2022/08/24 00:52:23;;;;;;;40.25;35.97;;;19.70;99.90;;;;;;5050453;28;20044;-78
2022/08/24 00:55:00;;;;;;;41.47;36.40;;;19.80;99.90;;;;;;5046691;28;20381;-78
2022/08/24 00:57:32;;;;;;;40.78;35.85;;;19.70;99.90;;;;;;5044258;28;20099;-79
2022/08/24 01:00:03;;;;;;;39.20;35.00;;;19.80;99.90;;;;;;5046377;28;20512;-78
2022/08/24 01:02:32;;;;;;;42.15;37.70;;;19.70;99.90;;;;;;5048739;28;20405;-79
2022/08/24 01:05:05;;;;;;;40.63;35.15;;;19.70;99.90;;;;;;5057486;28;20483;-79
2022/08/24 01:07:33;;;;;;;35.95;32.00;;;19.70;99.90;;;;;;5052888;28;20090;-79
2022/08/24 01:10:02;;;;;;;37.05;33.13;;;19.70;99.90;;;;;;5051103;28;20037;-79
2022/08/24 01:12:30;;;;;;;41.72;37.10;;;19.70;99.90;;;;;;5044423;28;20040;-78
2022/08/24 01:14:59;;;;;;;38.50;34.28;;;19.80;99.90;;;;;;5051628;28;20039;-79
2022/08/24 01:20:11;;;;;;;41.88;34.63;;;19.70;99.90;;;;;;5059751;28;20131;-79
2022/08/24 01:23:12;;;;;;;36.10;32.28;;;19.80;99.90;;;;;;5053244;28;20411;-80
2022/08/24 01:25:40;;;;;;;36.55;32.72;;;19.80;99.90;;;;;;5057439;28;20076;-80
2022/08/24 01:28:12;;;;;;;41.10;36.42;;;19.70;99.90;;;;;;5052310;28;20070;-80
2022/08/24 01:30:38;;;;;;;39.20;30.83;;;19.70;99.90;;;;;;5046970;28;20072;-80
2022/08/24 01:33:08;;;;;;;36.42;32.40;;;19.70;99.90;;;;;;5051474;28;20072;-78
2022/08/24 01:35:36;;;;;;;45.10;36.83;;;19.70;99.90;;;;;;5067591;28;20396;-77
2022/08/24 01:38:11;;;;;;;44.90;38.10;;;19.70;99.90;;;;;;5047455;28;20064;-77
2022/08/24 01:40:47;;;;;;;41.28;36.88;;;19.70;99.90;;;;;;5033701;28;20041;-78
2022/08/24 01:43:13;;;;;;;45.55;38.90;;;19.70;99.90;;;;;;5063843;28;20134;-76
2022/08/24 01:45:40;;;;;;;41.20;34.20;;;19.70;99.90;;;;;;5060792;28;20045;-77
2022/08/24 01:48:06;;;;;;;41.70;36.50;;;19.80;99.90;;;;;;5049346;28;20076;-78
2022/08/24 01:50:32;;;;;;;40.40;35.55;;;19.70;99.90;;;;;;5048745;28;20145;-78
2022/08/24 01:53:03;;;;;;;41.15;34.75;;;19.70;99.90;;;;;;5048042;28;20513;-77
2022/08/24 01:55:29;;;;;;;46.28;38.65;;;19.70;99.90;;;;;;5050057;28;20496;-78
2022/08/24 01:57:54;;;;;;;35.28;31.45;;;19.70;99.90;;;;;;5041333;28;20039;-78
2022/08/24 02:00:21;;;;;;;36.45;30.83;;;19.70;99.90;;;;;;5046203;28;20529;-78
2022/08/24 02:02:47;;;;;;;41.15;36.67;;;19.60;99.90;;;;;;5049404;28;20036;-79
2022/08/24 02:05:15;;;;;;;42.25;36.53;;;19.70;99.90;;;;;;5031042;28;20039;-77
2022/08/24 02:07:41;;;;;;;40.97;35.15;;;19.60;99.90;;;;;;5036025;28;20040;-78
2022/08/24 02:10:10;;;;;;;43.60;38.92;;;19.60;99.90;;;;;;5065662;28;20041;-77
2022/08/24 02:12:37;;;;;;;45.53;38.28;;;19.60;99.90;;;;;;5051896;28;20664;-79
2022/08/24 02:15:08;;;;;;;42.85;38.13;;;19.70;99.90;;;;;;5067601;28;20388;-80
2022/08/24 02:17:35;;;;;;;43.65;37.58;;;19.80;99.90;;;;;;5056444;28;20044;-80
2022/08/24 02:20:02;;;;;;;44.00;38.55;;;19.70;99.90;;;;;;5057335;28;20072;-80
2022/08/24 02:22:28;;;;;;;51.78;40.42;;;19.70;99.90;;;;;;5056966;28;20086;-79
2022/08/24 02:24:53;;;;;;;45.63;38.83;;;19.80;99.90;;;;;;5040593;28;20759;-79
2022/08/24 02:27:19;;;;;;;44.92;39.88;;;19.80;99.90;;;;;;5028632;28;20041;-80
2022/08/24 02:29:45;;;;;;;40.65;35.80;;;19.80;99.90;;;;;;5068882;28;20122;-79
2022/08/24 02:32:13;;;;;;;42.88;34.97;;;19.70;99.90;;;;;;5047198;28;20041;-79
2022/08/24 02:34:39;;;;;;;37.88;33.92;;;19.70;99.90;;;;;;5039201;28;20043;-79
2022/08/24 02:37:05;;;;;;;36.75;32.30;;;19.60;99.90;;;;;;5068922;28;20040;-78
2022/08/24 02:39:31;;;;;;;38.28;32.90;;;19.50;99.90;;;;;;5036176;28;20041;-79
2022/08/24 02:41:57;;;;;;;33.67;30.08;;;19.50;99.90;;;;;;5049611;28;20551;-79
2022/08/24 02:44:23;;;;;;;30.50;27.23;;;19.40;99.90;;;;;;5059029;28;20064;-79
2022/08/24 02:46:51;;;;;;;28.00;25.00;;;19.30;99.90;;;;;;5047607;28;20036;-79
2022/08/24 02:49:18;;;;;;;26.92;24.05;;;19.20;99.90;;;;;;5061892;28;20033;-80
2022/08/24 02:51:46;;;;;;;32.13;28.88;;;19.20;99.90;;;;;;5073920;28;20089;-80
2022/08/24 02:54:16;;;;;;;40.65;35.08;;;19.10;99.90;;;;;;5076364;28;20029;-80
2022/08/24 02:56:43;;;;;;;38.50;34.25;;;19.20;99.90;;;;;;5074677;28;20048;-79
2022/08/24 02:59:11;;;;;;;27.38;24.52;;;19.20;99.90;;;;;;5063719;28;20102;-80
2022/08/24 03:01:36;;;;;;;28.25;25.50;;;19.10;99.90;;;;;;5028535;28;20037;-78
2022/08/24 03:04:02;;;;;;;27.35;24.60;;;19.10;99.90;;;;;;5005083;28;20470;-77
2022/08/24 03:06:28;;;;;;;31.02;25.77;;;19.00;99.90;;;;;;5052355;28;20146;-78
2022/08/24 03:08:55;;;;;;;30.85;27.65;;;19.00;99.90;;;;;;5048812;28;20156;-77
2022/08/24 03:11:21;;;;;;;27.42;24.40;;;18.90;99.90;;;;;;5039966;28;20045;-78
2022/08/24 03:13:46;;;;;;;25.33;22.60;;;18.90;99.90;;;;;;5025000;28;20052;-78
2022/08/24 03:16:12;;;;;;;26.00;23.35;;;18.80;99.90;;;;;;5054268;28;20041;-79
2022/08/24 03:18:38;;;;;;;24.25;21.73;;;18.80;99.90;;;;;;5018024;28;20129;-78
2022/08/24 03:21:04;;;;;;;24.10;21.88;;;18.80;99.90;;;;;;5035814;28;20054;-77
2022/08/24 03:23:30;;;;;;;31.98;28.50;;;18.80;99.90;;;;;;5063485;28;20080;-76
2022/08/24 03:25:56;;;;;;;36.65;32.88;;;18.90;99.90;;;;;;5017966;28;20040;-77
2022/08/24 03:28:23;;;;;;;39.28;34.10;;;19.00;99.90;;;;;;5050566;28;20070;-78
2022/08/24 03:30:49;;;;;;;36.97;33.05;;;19.10;99.90;;;;;;5018290;28;20045;-79
2022/08/24 03:33:15;;;;;;;37.13;33.20;;;19.20;99.90;;;;;;5049424;28;20043;-79
2022/08/24 03:35:41;;;;;;;42.50;33.60;;;19.20;99.90;;;;;;5060889;28;20036;-78
2022/08/24 03:38:06;;;;;;;35.58;31.48;;;19.10;99.90;;;;;;5032690;28;20051;-80
2022/08/24 03:40:33;;;;;;;35.45;31.02;;;19.10;99.90;;;;;;5043399;28;20500;-80
2022/08/24 03:43:00;;;;;;;34.20;30.70;;;19.20;99.90;;;;;;5031399;28;20044;-77
2022/08/24 03:45:28;;;;;;;31.52;28.13;;;19.20;99.90;;;;;;5053598;28;20032;-78
2022/08/24 03:47:54;;;;;;;32.17;28.70;;;19.10;99.90;;;;;;5050014;28;20048;-78
2022/08/24 03:50:21;;;;;;;31.48;28.15;;;19.00;99.90;;;;;;5068331;28;20102;-78
2022/08/24 03:52:48;;;;;;;29.15;26.13;;;18.90;99.90;;;;;;5043788;28;20044;-77
2022/08/24 03:55:14;;;;;;;29.25;26.25;;;18.90;99.90;;;;;;5052431;28;20437;-77
2022/08/24 03:57:40;;;;;;;27.27;24.52;;;18.90;99.90;;;;;;5063606;28;20040;-77
2022/08/24 04:00:09;;;;;;;27.90;25.05;;;18.80;99.90;;;;;;5051260;28;20382;-77
2022/08/24 04:02:35;;;;;;;26.63;23.92;;;18.80;99.90;;;;;;5050968;28;20078;-78
2022/08/24 04:05:01;;;;;;;30.75;27.27;;;18.90;99.90;;;;;;5062778;28;20036;-79
2022/08/24 04:07:26;;;;;;;30.20;25.13;;;18.80;99.90;;;;;;5033421;28;20032;-80
2022/08/24 04:09:53;;;;;;;24.45;21.95;;;18.80;99.90;;;;;;5045718;28;20484;-79
2022/08/24 04:12:18;;;;;;;24.38;21.80;;;18.80;99.90;;;;;;5042093;28;20065;-77
2022/08/24 04:14:44;;;;;;;21.05;18.90;;;18.70;99.90;;;;;;5031309;28;20437;-79
2022/08/24 04:17:13;;;;;;;24.05;21.55;;;18.60;99.90;;;;;;5047353;28;20029;-79
2022/08/24 04:19:56;;;;;;;20.40;18.40;;;18.50;99.90;;;;;;5057650;28;20061;-79
2022/08/24 04:22:23;;;;;;;19.95;18.05;;;18.30;99.90;;;;;;5023792;28;20035;-79
2022/08/24 04:24:49;;;;;;;20.38;17.80;;;18.00;99.90;;;;;;5051914;28;20597;-78
2022/08/24 04:27:15;;;;;;;19.35;17.55;;;17.90;99.90;;;;;;5027051;28;20082;-79
2022/08/24 04:29:41;;;;;;;18.67;16.70;;;18.00;99.90;;;;;;5020464;28;20404;-79
2022/08/24 04:32:07;;;;;;;16.95;15.35;;;18.00;99.90;;;;;;5018291;28;20033;-79
2022/08/24 04:34:33;;;;;;;17.15;15.60;;;18.00;99.90;;;;;;5028915;28;20356;-80
2022/08/24 04:36:59;;;;;;;19.17;17.17;;;18.00;99.90;;;;;;5057424;28;20044;-78
2022/08/24 04:39:25;;;;;;;17.55;15.52;;;18.00;99.90;;;;;;5052509;28;20033;-78
2022/08/24 04:41:51;;;;;;;18.38;16.67;;;18.10;99.90;;;;;;5065688;28;20037;-78
2022/08/24 04:44:17;;;;;;;18.88;17.15;;;18.10;99.90;;;;;;5037749;28;20037;-79
2022/08/24 04:46:43;;;;;;;16.73;15.13;;;18.00;99.90;;;;;;5036186;28;20051;-78
2022/08/24 04:49:09;;;;;;;13.65;12.55;;;17.90;99.90;;;;;;5055434;28;20397;-78
2022/08/24 04:51:35;;;;;;;48.10;14.52;;;17.80;99.90;;;;;;5065822;28;20032;-78
2022/08/24 04:54:01;;;;;;;19.00;15.77;;;17.70;99.90;;;;;;5052291;28;20029;-78
2022/08/24 04:56:27;;;;;;;15.10;13.80;;;17.70;99.90;;;;;;5068825;28;20388;-79
2022/08/24 04:58:54;;;;;;;15.73;14.15;;;17.70;99.90;;;;;;5017576;28;20064;-79
2022/08/24 05:01:22;;;;;;;17.60;16.00;;;17.80;99.90;;;;;;5050098;28;20041;-79
2022/08/24 05:03:51;;;;;;;15.63;14.10;;;17.90;99.90;;;;;;5067253;28;20040;-79
2022/08/24 05:06:21;;;;;;;19.00;17.25;;;17.80;99.90;;;;;;5065345;28;20346;-79
2022/08/24 05:08:47;;;;;;;19.90;18.00;;;17.90;99.90;;;;;;5048876;28;20048;-80
2022/08/24 05:11:16;;;;;;;18.25;16.45;;;17.80;99.90;;;;;;5037614;28;20496;-80
2022/08/24 05:13:45;;;;;;;19.35;17.55;;;17.80;99.90;;;;;;5054096;28;20032;-79
2022/08/24 05:16:18;;;;;;;19.13;17.33;;;17.90;99.90;;;;;;5053761;28;20036;-80
2022/08/24 05:18:45;;;;;;;19.90;18.00;;;17.90;99.90;;;;;;5068212;28;20037;-80
2022/08/24 05:21:12;;;;;;;22.92;20.75;;;18.00;99.90;;;;;;5027459;28;20040;-81
2022/08/24 05:23:39;;;;;;;22.35;20.15;;;18.10;99.90;;;;;;5036997;28;20143;-81
2022/08/24 05:26:17;;;;;;;24.08;21.58;;;18.10;99.90;;;;;;5042636;28;20049;-81
2022/08/24 05:28:43;;;;;;;24.50;21.92;;;18.30;99.90;;;;;;5065031;28;20036;-80
2022/08/24 05:31:16;;;;;;;26.90;22.10;;;18.30;99.90;;;;;;5034298;28;20041;-81
2022/08/24 05:33:42;;;;;;;25.00;22.33;;;18.50;99.90;;;;;;5050747;28;20421;-81
2022/08/24 05:36:21;;;;;;;29.02;26.20;;;18.50;99.90;;;;;;5039443;28;20093;-81
2022/08/24 05:38:49;;;;;;;33.38;29.77;;;18.50;99.90;;;;;;5049944;28;20076;-79
2022/08/24 05:41:15;;;;;;;39.38;33.75;;;18.60;99.90;;;;;;5046921;28;20056;-77
2022/08/24 05:43:41;;;;;;;38.72;34.53;;;19.00;99.90;;;;;;5048074;28;20074;-80
2022/08/24 05:46:07;;;;;;;43.97;36.55;;;19.20;99.90;;;;;;5054382;28;20128;-79
2022/08/24 05:48:37;;;;;;;45.15;36.40;;;19.40;99.90;;;;;;5039419;28;20079;-81
2022/08/24 05:51:04;;;;;;;44.83;36.33;;;19.70;99.90;;;;;;5029032;28;20074;-80
2022/08/24 05:53:30;;;;;;;43.15;37.95;;;19.80;99.90;;;;;;5049767;28;20033;-80
2022/08/24 05:55:56;;;;;;;48.75;40.03;;;20.00;99.90;;;;;;5056546;28;20463;-80
2022/08/24 05:58:21;;;;;;;47.83;39.28;;;20.00;99.90;;;;;;5021382;28;20141;-81
2022/08/24 06:00:49;;;;;;;40.40;35.15;;;20.20;99.90;;;;;;5057206;28;20048;-79
2022/08/24 06:03:15;;;;;;;40.20;35.25;;;20.20;99.90;;;;;;5058002;28;20044;-81
2022/08/24 06:05:43;;;;;;;35.40;30.38;;;20.10;99.90;;;;;;5057435;28;20040;-81
2022/08/24 06:08:09;;;;;;;41.88;35.67;;;20.10;99.90;;;;;;5074356;28;20041;-80
2022/08/24 06:11:01;;;;;;;41.67;33.42;;;20.10;99.90;;;;;;5053698;28;20111;-81
2022/08/24 06:13:27;;;;;;;49.72;41.38;;;20.10;99.90;;;;;;5036369;28;20037;-80
2022/08/24 06:16:05;;;;;;;52.08;45.17;;;20.20;99.90;;;;;;5023537;28;20033;-82
2022/08/24 06:18:32;;;;;;;51.65;39.17;;;20.50;99.90;;;;;;5063100;28;20119;-81
2022/08/24 06:21:11;;;;;;;53.33;47.30;;;20.70;99.90;;;;;;5053678;28;20051;-80
2022/08/24 06:23:38;;;;;;;55.80;47.40;;;20.90;99.90;;;;;;5056234;28;20565;-80
2022/08/24 06:28:51;;;;;;;52.15;45.50;;;21.10;99.90;;;;;;5045600;28;20411;-79
2022/08/24 06:31:18;;;;;;;50.83;41.42;;;21.00;99.90;;;;;;5052498;28;20041;-80
2022/08/24 06:33:44;;;;;;;51.30;44.67;;;21.10;99.90;;;;;;5042751;28;20150;-81
2022/08/24 06:36:10;;;;;;;52.60;42.90;;;21.10;99.90;;;;;;5040636;28;20040;-82
2022/08/24 06:38:36;;;;;;;46.67;41.60;;;21.10;99.90;;;;;;5057181;28;20047;-81
2022/08/24 06:41:02;;;;;;;53.42;43.47;;;21.20;99.90;;;;;;5052012;28;20045;-82
2022/08/24 06:43:28;;;;;;;49.63;42.30;;;21.20;99.90;;;;;;5027939;28;20099;-77
2022/08/24 06:45:55;;;;;;;50.65;42.00;;;21.20;99.90;;;;;;5035386;28;20055;-78
2022/08/24 06:48:21;;;;;;;47.78;42.53;;;21.30;99.90;;;;;;5052150;28;20120;-78
2022/08/24 06:50:47;;;;;;;53.22;45.47;;;21.30;99.90;;;;;;5037581;28;20116;-79
2022/08/24 06:53:13;;;;;;;51.33;44.08;;;21.20;99.90;;;;;;5050292;28;20440;-78
2022/08/24 06:55:48;;;;;;;51.17;44.38;;;21.50;99.90;;;;;;5053284;28;20439;-79
2022/08/24 06:58:14;;;;;;;45.67;40.38;;;21.40;99.90;;;;;;5049704;28;20036;-77
2022/08/24 07:00:40;;;;;;;48.45;41.33;;;21.60;99.90;;;;;;5055437;28;20584;-79
2022/08/24 07:03:06;;;;;;;44.75;38.03;;;21.60;99.90;;;;;;5069978;28;20622;-78
2022/08/24 07:05:33;;;;;;;43.90;39.28;;;21.60;99.90;;;;;;5053167;28;20049;-80
2022/08/24 07:07:58;;;;;;;45.28;37.53;;;21.70;99.90;;;;;;5055010;28;20040;-79
2022/08/24 07:10:25;;;;;;;40.78;36.53;;;21.60;99.90;;;;;;5055697;28;20044;-80
2022/08/24 07:12:51;;;;;;;38.05;33.95;;;21.70;99.90;;;;;;5051306;28;20054;-79
2022/08/24 07:15:18;;;;;;;38.42;32.42;;;21.80;99.90;;;;;;5054377;28;20115;-67
2022/08/24 07:17:46;;;;;;;32.17;28.98;;;21.70;99.90;;;;;;5064167;28;20438;-80
2022/08/24 07:20:13;;;;;;;32.33;29.02;;;21.80;99.90;;;;;;5056022;28;20072;-80
2022/08/24 07:22:38;;;;;;;27.40;23.30;;;21.80;99.90;;;;;;5051672;28;20036;-82
2022/08/24 07:25:05;;;;;;;23.27;20.77;;;21.90;99.90;;;;;;5053936;28;20108;-81
2022/08/24 07:27:32;;;;;;;23.88;21.20;;;21.90;99.90;;;;;;5054386;28;20040;-81
2022/08/24 07:29:58;;;;;;;22.00;19.67;;;21.90;99.90;;;;;;5055913;28;20068;-80
2022/08/24 07:32:24;;;;;;;15.75;12.77;;;21.90;99.90;;;;;;5022785;28;20037;-80
2022/08/24 07:34:52;;;;;;;13.77;12.52;;;21.90;99.90;;;;;;5055481;28;20071;-81
2022/08/24 07:37:18;;;;;;;14.40;13.07;;;21.90;99.90;;;;;;5072711;28;20044;-80
2022/08/24 07:39:59;;;;;;;15.57;13.98;;;22.00;99.90;;;;;;5039099;28;20369;-79
2022/08/24 07:50:36;;;;;;;12.68;9.07;;;22.20;99.90;;;;;;4994059;28;20052;-80
2022/08/24 07:53:03;;;;;;;11.50;10.27;;;22.30;99.90;;;;;;5053794;28;20500;-79
2022/08/24 07:55:31;;;;;;;12.88;11.18;;;22.40;99.90;;;;;;5021073;28;20102;-80
2022/08/24 07:57:58;;;;;;;14.43;11.38;;;22.30;99.90;;;;;;5021358;28;20111;-80
2022/08/24 08:00:24;;;;;;;12.82;11.00;;;22.40;99.90;;;;;;5019155;28;20048;-79
2022/08/24 08:02:51;;;;;;;10.32;9.38;;;22.50;99.90;;;;;;5034173;28;20508;-79
2022/08/24 08:05:21;;;;;;;13.95;11.55;;;22.60;99.90;;;;;;5036943;28;20036;-78
2022/08/24 08:07:48;;;;;;;11.48;10.38;;;22.60;99.90;;;;;;5047430;28;20037;-78
2022/08/24 08:10:15;;;;;;;14.38;11.32;;;22.80;99.90;;;;;;5033141;28;20094;-78
2022/08/24 08:12:41;;;;;;;13.57;12.23;;;22.60;99.90;;;;;;5034882;28;20068;-75
2022/08/24 08:15:08;;;;;;;11.50;10.00;;;22.80;99.90;;;;;;5067484;28;20063;-75
2022/08/24 08:17:36;;;;;;;13.13;10.15;;;22.90;99.90;;;;;;5048334;28;20075;-78
2022/08/24 08:20:07;;;;;;;15.52;9.50;;;22.90;99.90;;;;;;5051594;28;20048;-79
2022/08/24 08:25:20;;;;;;;10.00;9.02;;;22.90;99.90;;;;;;5068519;28;20052;-79
2022/08/24 08:27:46;;;;;;;13.68;8.55;;;23.00;99.90;;;;;;5037285;28;20090;-80
2022/08/24 08:30:14;;;;;;;9.68;8.68;;;23.10;99.90;;;;;;5037260;28;20371;-78
2022/08/24 08:32:40;;;;;;;10.07;8.15;;;23.10;99.90;;;;;;5054443;28;20028;-80
2022/08/24 08:35:06;;;;;;;10.45;8.35;;;23.20;99.90;;;;;;5052492;28;20035;-79
2022/08/24 08:37:32;;;;;;;10.55;8.25;;;23.20;99.90;;;;;;5029569;28;20361;-80
2022/08/24 08:39:57;;;;;;;10.45;9.07;;;23.20;99.90;;;;;;5052341;28;20049;-78
2022/08/24 08:42:50;;;;;;;11.20;8.68;;;23.30;99.90;;;;;;5054048;28;20040;-79
2022/08/24 08:45:41;;;;;;;12.95;9.68;;;23.50;99.90;;;;;;5037515;28;20044;-79
2022/08/24 08:48:43;;;;;;;10.27;9.07;;;23.40;99.90;;;;;;5053531;28;20044;-79
2022/08/24 08:51:44;;;;;;;9.65;8.63;;;23.50;99.90;;;;;;5041615;28;20051;-78
2022/08/24 08:54:35;;;;;;;12.48;10.02;;;23.50;99.90;;;;;;5053095;28;20071;-78
2022/08/24 08:57:35;;;;;;;10.77;8.65;;;23.80;99.90;;;;;;5064248;28;20041;-78
2022/08/24 09:00:13;;;;;;;9.45;8.55;;;23.90;99.90;;;;;;5047755;28;20450;-77
2022/08/24 09:03:12;;;;;;;9.75;8.02;;;24.10;99.90;;;;;;5067043;28;20049;-77
2022/08/24 09:05:57;;;;;;;9.00;7.43;;;24.20;99.90;;;;;;5052678;28;20063;-77
2022/08/24 09:08:44;;;;;;;8.10;7.30;;;24.10;99.90;;;;;;5036573;28;20500;-77
2022/08/24 09:11:34;;;;;;;12.48;7.75;;;24.20;99.90;;;;;;5049881;28;20527;-77
2022/08/24 09:14:23;;;;;;;7.70;6.90;;;24.50;99.90;;;;;;5061046;28;20076;-78
2022/08/24 09:16:51;;;;;;;11.55;7.00;;;24.60;99.90;;;;;;5059410;28;20041;-79
2022/08/24 09:19:48;;;;;;;7.45;6.47;;;24.80;99.90;;;;;;5065969;28;20032;-78
2022/08/24 09:22:19;;;;;;;6.80;5.63;;;24.80;99.90;;;;;;5056040;28;20036;-77
2022/08/24 09:24:51;;;;;;;7.50;6.68;;;25.00;99.90;;;;;;5054228;28;20064;-78
2022/08/24 09:27:30;;;;;;;7.75;6.00;;;25.20;99.90;;;;;;5066876;28;20056;-77
2022/08/24 09:30:10;;;;;;;7.32;5.97;;;25.20;99.90;;;;;;5042398;28;20071;-78
2022/08/24 09:33:14;;;;;;;5.53;4.97;;;25.30;99.90;;;;;;5052924;28;20048;-78
2022/08/24 09:36:11;;;;;;;5.93;4.70;;;25.50;99.90;;;;;;5069069;28;20123;-77
2022/08/24 09:39:05;;;;;;;5.47;4.80;;;25.70;99.90;;;;;;5052430;28;20037;-77
2022/08/24 09:41:53;;;;;;;6.22;5.03;;;26.00;99.90;;;;;;5044362;28;20049;-76
2022/08/24 09:44:40;;;;;;;6.63;3.88;;;26.20;99.90;;;;;;5068004;28;20048;-77
2022/08/24 09:47:27;;;;;;;4.57;3.55;;;26.60;99.90;;;;;;5050636;28;20124;-77
2022/08/24 09:50:02;;;;;;;4.88;3.58;;;26.50;99.90;;;;;;5062088;28;20087;-77
2022/08/24 09:53:05;;;;;;;4.85;3.50;;;26.80;99.90;;;;;;5047442;28;20393;-77
2022/08/24 09:55:47;;;;;;;5.93;3.67;;;26.90;99.90;;;;;;5051159;28;20044;-77
2022/08/24 09:58:41;;;;;;;6.65;3.50;;;27.20;99.90;;;;;;5052157;28;20062;-78
2022/08/24 10:01:32;;;;;;;3.85;3.55;;;27.30;99.90;;;;;;5050484;28;20040;-77
2022/08/24 10:04:16;;;;;;;4.10;3.63;;;27.50;99.90;;;;;;5049960;28;20489;-77
2022/08/24 10:07:10;;;;;;;3.85;3.50;;;27.50;99.90;;;;;;5055385;28;20586;-77
2022/08/24 10:10:07;;;;;;;7.97;3.92;;;27.60;99.90;;;;;;5047228;28;20040;-78
2022/08/24 10:12:59;;;;;;;3.95;3.42;;;27.80;99.90;;;;;;5066714;28;20075;-78
2022/08/24 10:15:35;;;;;;;6.65;3.78;;;27.60;99.90;;;;;;5051923;28;20048;-78
2022/08/24 10:18:01;;;;;;;4.22;3.75;;;27.90;99.90;;;;;;5049823;28;20072;-77
2022/08/24 10:20:57;;;;;;;4.47;3.50;;;28.20;99.90;;;;;;5052124;28;20512;-77
2022/08/24 10:24:00;;;;;;;4.47;3.40;;;28.40;99.90;;;;;;5049015;28;20048;-79
2022/08/24 10:26:45;;;;;;;4.22;3.35;;;28.50;99.90;;;;;;5065744;28;20052;-79
2022/08/24 10:29:34;;;;;;;6.45;3.58;;;28.50;99.90;;;;;;5082867;28;20183;-80
2022/08/24 10:32:11;;;;;;;4.43;3.28;;;28.60;99.90;;;;;;5056583;28;20438;-81
2022/08/24 10:35:14;;;;;;;5.70;3.30;;;28.60;99.90;;;;;;5049805;28;20043;-81
2022/08/24 10:41:42;;;;;;;3.90;3.60;;;28.40;99.90;;;;;;5054628;28;20036;-80
2022/08/24 10:44:36;;;;;;;4.13;3.47;;;28.30;99.90;;;;;;5058894;28;20136;-80
2022/08/24 10:47:27;;;;;;;3.50;3.20;;;28.90;99.90;;;;;;5047319;28;20043;-80
2022/08/24 10:50:15;;;;;;;2.63;2.38;;;28.70;99.90;;;;;;5055390;28;20036;-80
2022/08/24 10:53:28;;;;;;;4.20;2.90;;;28.70;99.90;;;;;;5089179;28;20068;-81
2022/08/24 10:56:18;;;;;;;6.70;3.10;;;28.90;99.90;;;;;;5056784;28;20117;-80
2022/08/24 10:59:06;;;;;;;5.00;2.78;;;28.90;99.90;;;;;;5056389;28;20439;-81
2022/08/24 11:01:35;;;;;;;3.78;2.47;;;29.30;99.90;;;;;;5068823;28;20081;-81
2022/08/24 11:04:59;;;;;;;4.47;2.58;;;29.20;99.90;;;;;;5066061;28;20069;-81
2022/08/24 11:07:31;;;;;;;3.85;2.30;;;29.10;99.90;;;;;;5043844;28;20059;-81
2022/08/24 11:10:08;;;;;;;2.58;2.38;;;29.10;99.90;;;;;;5054827;28;20029;-82
2022/08/24 11:12:43;;;;;;;5.22;2.30;;;29.20;99.90;;;;;;5078171;28;20047;-81
2022/08/24 11:15:25;;;;;;;3.22;2.47;;;29.70;99.90;;;;;;5082517;28;20052;-81
2022/08/24 11:18:17;;;;;;;4.32;2.80;;;29.60;99.90;;;;;;5058537;28;20427;-81
2022/08/24 11:21:45;;;;;;;3.25;2.13;;;29.90;99.90;;;;;;5061251;28;20106;-80
2022/08/24 11:29:48;;;;;;;3.15;2.80;;;30.10;99.90;;;;;;4996078;28;20043;-81
2022/08/24 13:05:18;;;;;;;2.85;1.63;;;28.80;99.90;;;;;;5047957;28;20045;-80
2022/08/24 13:07:48;;;;;;;1.95;1.60;;;28.70;99.90;;;;;;5017837;28;20195;-80
2022/08/24 13:10:23;;;;;;;2.90;1.70;;;28.80;99.90;;;;;;5032790;28;20068;-80
2022/08/24 13:13:13;;;;;;;4.43;1.95;;;29.10;99.90;;;;;;5017144;28;20037;-80
2022/08/24 13:15:52;;;;;;;1.90;1.70;;;29.10;99.90;;;;;;5009791;28;20036;-80
2022/08/24 13:18:18;;;;;;;1.92;1.83;;;29.80;99.90;;;;;;5016509;28;20044;-80
2022/08/24 13:20:44;;;;;;;2.15;1.50;;;30.30;99.90;;;;;;5016918;28;20044;-81
2022/08/24 13:23:17;;;;;;;3.35;1.80;;;30.40;99.90;;;;;;5033317;28;20048;-80
2022/08/24 13:25:46;;;;;;;2.15;1.75;;;30.20;99.90;;;;;;5011835;28;20036;-81
2022/08/24 13:28:23;;;;;;;2.00;1.80;;;30.50;99.90;;;;;;5014893;28;20057;-80
2022/08/24 13:30:52;;;;;;;5.78;2.20;;;30.70;98.00;;;;;;5016658;28;20540;-80
2022/08/24 13:33:24;;;;;;;2.10;1.67;;;30.90;98.30;;;;;;5016409;28;20385;-80
2022/08/24 13:35:52;;;;;;;1.80;1.50;;;30.80;97.00;;;;;;5015147;28;20041;-80
2022/08/24 13:38:58;;;;;;;2.35;1.55;;;31.00;98.70;;;;;;5031022;28;20045;-81
2022/08/24 13:41:31;;;;;;;3.15;1.50;;;31.50;84.20;;;;;;4974923;28;20148;-80
2022/08/24 13:44:09;;;;;;;2.08;1.50;;;31.80;94.10;;;;;;5029344;28;20041;-81
2022/08/24 13:47:01;;;;;;;1.65;1.52;;;32.50;93.30;;;;;;5015351;28;20041;-81
2022/08/24 13:49:39;;;;;;;1.92;1.45;;;32.20;57.90;;;;;;5037389;28;20037;-81
2022/08/24 13:52:21;;;;;;;2.65;1.40;;;32.70;74.40;;;;;;5012804;28;20050;-80
2022/08/24 13:55:11;;;;;;;5.50;1.70;;;32.70;72.90;;;;;;5007991;28;20373;-82
2022/08/24 13:58:43;;;;;;;;;;;;;;;;;;;;;
2022/08/24 14:26:21;;;;;;;;;;;;;;;;;;;;;
2022/08/24 14:30:32;;;;;;;;;;;;;;;;;;;;;
2022/08/24 14:48:32;;;;;;;4.22;3.20;;;29.40;99.90;;;;;;4972474;28;20042;-80
2022/08/24 15:02:35;;;;;;;5.32;3.55;;;27.90;99.90;;;;;;4970213;28;20046;-80
2022/08/24 15:06:04;;;;;;;;;;;;;;;;;;;;;
2022/08/24 15:28:56;;;;;;;;;;;;;;;;;;;;;
2022/08/24 15:32:15;;;;;;;7.05;3.97;;;27.40;99.90;;;;;;4857486;29;20070;-78
2022/08/24 15:35:00;;;;;;;3.90;3.60;;;27.50;99.90;;;;;;4781420;29;20092;-79
2022/08/24 15:41:53;;;;;;;7.25;3.63;;;27.60;99.90;;;;;;5026186;28;20183;-80
2022/08/24 15:45:06;;;;;;;4.28;3.88;;;27.60;99.90;;;;;;4993345;28;20053;-79
2022/08/24 15:50:40;;;;;;;4.75;3.58;;;27.60;99.90;;;;;;5005480;28;20049;-80
2022/08/24 16:04:57;;;;;;;4.28;3.80;;;27.50;99.90;;;;;;5020187;28;20031;-79
2022/08/24 16:08:30;;;;;;;;;;;;;;;;;;;;;
2022/08/24 16:29:54;;;;;;;4.75;3.65;;;27.20;99.90;;;;;;4893671;29;20140;-80
2022/08/24 16:32:58;;;;;;;5.25;3.53;;;27.30;99.90;;;;;;4844078;29;20079;-79
2022/08/24 16:35:24;;;;;;;5.15;3.30;;;27.20;99.90;;;;;;4936490;28;20101;-80
2022/08/24 16:43:17;;;;;;;4.72;3.83;;;27.30;99.90;;;;;;4876126;29;20104;-80
2022/08/24 16:46:46;;;;;;;;;;;;;;;;;;;;;
2022/08/24 16:49:17;;;;;;;5.35;3.58;;;26.80;99.90;;;;;;4886687;29;20458;-79
2022/08/24 16:53:08;;;;;;;;;;;;;;;;;;;;;
2022/08/24 16:56:40;;;;;;;4.40;3.33;;;27.10;99.90;;;;;;4777229;29;20060;-79
2022/08/24 17:22:50;;;;;;;6.45;5.30;;;25.50;99.90;;;;;;4808645;29;20072;-79
2022/08/24 17:26:10;;;;;;;5.88;5.28;;;25.50;99.90;;;;;;4776224;29;20643;-79
2022/08/24 17:28:50;;;;;;;6.13;4.70;;;25.50;99.90;;;;;;4779856;29;20198;-79
2022/08/24 17:31:24;;;;;;;6.60;5.00;;;25.40;99.90;;;;;;4785477;29;20392;-79
2022/08/24 17:33:59;;;;;;;5.53;5.03;;;25.40;99.90;;;;;;4798089;29;20404;-79
2022/08/24 17:36:40;;;;;;;7.00;4.78;;;25.10;99.90;;;;;;4841381;29;20120;-79
2022/08/24 17:39:10;;;;;;;5.93;5.28;;;25.30;99.90;;;;;;4867500;29;21364;-78